sensor_id;sensor_type;location;lat;lon;timestamp;P1;durP1;ratioP1;P2;durP2;ratioP2
7829;SDS011;3960;51.86894000;5.39848000;2022-08-30T00:00:19;13.97;;;5.10;;
7829;SDS011;3960;51.86894000;5.39848000;2022-08-30T00:03:04;9.80;;;4.70;;
7829;SDS011;3960;51.86894000;5.39848000;2022-08-30T00:05:30;8.93;;;5.35;;
7829;SDS011;3960;51.86894000;5.39848000;2022-08-30T00:07:56;11.13;;;4.47;;
7829;SDS011;3960;51.86894000;5.39848000;2022-08-30T00:10:23;8.02;;;4.60;;
7829;SDS011;3960;51.86894000;5.39848000;2022-08-30T00:12:48;9.02;;;3.97;;
7829;SDS011;3960;51.86894000;5.39848000;2022-08-30T00:15:14;9.05;;;4.00;;
7829;SDS011;3960;51.86894000;5.39848000;2022-08-30T00:17:39;8.20;;;4.50;;
7829;SDS011;3960;51.86894000;5.39848000;2022-08-30T00:20:05;6.53;;;4.07;;
7829;SDS011;3960;51.86894000;5.39848000;2022-08-30T00:22:31;9.63;;;5.35;;
7829;SDS011;3960;51.86894000;5.39848000;2022-08-30T00:24:57;16.30;;;5.07;;
7829;SDS011;3960;51.86894000;5.39848000;2022-08-30T00:27:24;13.73;;;5.72;;
7829;SDS011;3960;51.86894000;5.39848000;2022-08-30T00:29:49;10.13;;;4.93;;
7829;SDS011;3960;51.86894000;5.39848000;2022-08-30T00:32:15;10.07;;;5.38;;
7829;SDS011;3960;51.86894000;5.39848000;2022-08-30T00:34:40;8.90;;;4.80;;
7829;SDS011;3960;51.86894000;5.39848000;2022-08-30T00:37:05;10.70;;;4.47;;
7829;SDS011;3960;51.86894000;5.39848000;2022-08-30T00:39:30;14.10;;;4.90;;
7829;SDS011;3960;51.86894000;5.39848000;2022-08-30T00:41:56;19.33;;;5.30;;
7829;SDS011;3960;51.86894000;5.39848000;2022-08-30T00:44:21;12.03;;;5.30;;
7829;SDS011;3960;51.86894000;5.39848000;2022-08-30T00:46:46;17.70;;;5.30;;
7829;SDS011;3960;51.86894000;5.39848000;2022-08-30T00:49:11;11.87;;;5.17;;
7829;SDS011;3960;51.86894000;5.39848000;2022-08-30T00:51:37;13.60;;;5.82;;
7829;SDS011;3960;51.86894000;5.39848000;2022-08-30T00:54:03;16.85;;;6.35;;
7829;SDS011;3960;51.86894000;5.39848000;2022-08-30T00:56:29;12.57;;;6.10;;
7829;SDS011;3960;51.86894000;5.39848000;2022-08-30T00:58:56;16.48;;;6.32;;
7829;SDS011;3960;51.86894000;5.39848000;2022-08-30T01:01:23;14.52;;;5.97;;
7829;SDS011;3960;51.86894000;5.39848000;2022-08-30T01:03:49;11.90;;;6.20;;
7829;SDS011;3960;51.86894000;5.39848000;2022-08-30T01:06:14;11.25;;;5.85;;
7829;SDS011;3960;51.86894000;5.39848000;2022-08-30T01:08:40;13.32;;;6.28;;
7829;SDS011;3960;51.86894000;5.39848000;2022-08-30T01:11:05;14.15;;;6.60;;
7829;SDS011;3960;51.86894000;5.39848000;2022-08-30T01:13:31;12.82;;;6.07;;
7829;SDS011;3960;51.86894000;5.39848000;2022-08-30T01:15:58;15.00;;;6.45;;
7829;SDS011;3960;51.86894000;5.39848000;2022-08-30T01:18:24;11.13;;;5.50;;
7829;SDS011;3960;51.86894000;5.39848000;2022-08-30T01:21:02;11.65;;;5.70;;
7829;SDS011;3960;51.86894000;5.39848000;2022-08-30T01:23:30;11.52;;;5.38;;
7829;SDS011;3960;51.86894000;5.39848000;2022-08-30T01:25:57;8.65;;;4.85;;
7829;SDS011;3960;51.86894000;5.39848000;2022-08-30T01:28:23;7.72;;;4.70;;
7829;SDS011;3960;51.86894000;5.39848000;2022-08-30T01:30:48;9.77;;;5.07;;
7829;SDS011;3960;51.86894000;5.39848000;2022-08-30T01:33:14;10.37;;;4.60;;
7829;SDS011;3960;51.86894000;5.39848000;2022-08-30T01:35:56;7.00;;;4.57;;
7829;SDS011;3960;51.86894000;5.39848000;2022-08-30T01:38:26;8.30;;;4.75;;
7829;SDS011;3960;51.86894000;5.39848000;2022-08-30T01:40:56;7.83;;;4.93;;
7829;SDS011;3960;51.86894000;5.39848000;2022-08-30T01:43:21;9.77;;;4.70;;
7829;SDS011;3960;51.86894000;5.39848000;2022-08-30T01:45:46;10.17;;;4.60;;
7829;SDS011;3960;51.86894000;5.39848000;2022-08-30T01:48:12;6.22;;;4.60;;
7829;SDS011;3960;51.86894000;5.39848000;2022-08-30T01:50:38;7.13;;;4.43;;
7829;SDS011;3960;51.86894000;5.39848000;2022-08-30T01:53:04;10.57;;;4.78;;
7829;SDS011;3960;51.86894000;5.39848000;2022-08-30T01:55:29;6.78;;;4.32;;
7829;SDS011;3960;51.86894000;5.39848000;2022-08-30T01:57:54;6.97;;;5.10;;
7829;SDS011;3960;51.86894000;5.39848000;2022-08-30T02:00:20;7.00;;;4.43;;
7829;SDS011;3960;51.86894000;5.39848000;2022-08-30T02:02:45;9.30;;;4.78;;
7829;SDS011;3960;51.86894000;5.39848000;2022-08-30T02:05:10;9.88;;;5.20;;
7829;SDS011;3960;51.86894000;5.39848000;2022-08-30T02:07:35;9.48;;;5.28;;
7829;SDS011;3960;51.86894000;5.39848000;2022-08-30T02:10:01;7.60;;;5.80;;
7829;SDS011;3960;51.86894000;5.39848000;2022-08-30T02:12:26;10.77;;;5.43;;
7829;SDS011;3960;51.86894000;5.39848000;2022-08-30T02:14:52;8.77;;;5.55;;
7829;SDS011;3960;51.86894000;5.39848000;2022-08-30T02:17:17;7.63;;;5.60;;
7829;SDS011;3960;51.86894000;5.39848000;2022-08-30T02:19:43;9.57;;;6.55;;
7829;SDS011;3960;51.86894000;5.39848000;2022-08-30T02:22:09;7.57;;;5.85;;
7829;SDS011;3960;51.86894000;5.39848000;2022-08-30T02:24:34;9.45;;;5.47;;
7829;SDS011;3960;51.86894000;5.39848000;2022-08-30T02:26:59;12.97;;;6.10;;
7829;SDS011;3960;51.86894000;5.39848000;2022-08-30T02:29:26;7.38;;;5.45;;
7829;SDS011;3960;51.86894000;5.39848000;2022-08-30T02:31:51;8.10;;;5.57;;
7829;SDS011;3960;51.86894000;5.39848000;2022-08-30T02:34:16;7.80;;;5.50;;
7829;SDS011;3960;51.86894000;5.39848000;2022-08-30T02:36:42;7.10;;;5.30;;
7829;SDS011;3960;51.86894000;5.39848000;2022-08-30T02:39:07;9.98;;;6.03;;
7829;SDS011;3960;51.86894000;5.39848000;2022-08-30T02:41:33;9.73;;;5.90;;
7829;SDS011;3960;51.86894000;5.39848000;2022-08-30T02:43:58;8.10;;;5.97;;
7829;SDS011;3960;51.86894000;5.39848000;2022-08-30T02:46:24;8.27;;;5.50;;
7829;SDS011;3960;51.86894000;5.39848000;2022-08-30T02:48:50;11.52;;;6.22;;
7829;SDS011;3960;51.86894000;5.39848000;2022-08-30T02:51:15;8.93;;;6.40;;
7829;SDS011;3960;51.86894000;5.39848000;2022-08-30T02:53:41;11.33;;;6.67;;
7829;SDS011;3960;51.86894000;5.39848000;2022-08-30T02:56:07;10.85;;;6.90;;
7829;SDS011;3960;51.86894000;5.39848000;2022-08-30T02:58:33;9.98;;;6.85;;
7829;SDS011;3960;51.86894000;5.39848000;2022-08-30T03:00:58;11.30;;;6.97;;
7829;SDS011;3960;51.86894000;5.39848000;2022-08-30T03:03:24;8.85;;;5.88;;
7829;SDS011;3960;51.86894000;5.39848000;2022-08-30T03:05:49;8.60;;;6.40;;
7829;SDS011;3960;51.86894000;5.39848000;2022-08-30T03:08:14;10.27;;;6.57;;
7829;SDS011;3960;51.86894000;5.39848000;2022-08-30T03:10:40;9.83;;;7.13;;
7829;SDS011;3960;51.86894000;5.39848000;2022-08-30T03:13:05;9.20;;;6.77;;
7829;SDS011;3960;51.86894000;5.39848000;2022-08-30T03:15:31;11.75;;;7.28;;
7829;SDS011;3960;51.86894000;5.39848000;2022-08-30T03:17:57;9.93;;;6.88;;
7829;SDS011;3960;51.86894000;5.39848000;2022-08-30T03:20:22;10.85;;;6.50;;
7829;SDS011;3960;51.86894000;5.39848000;2022-08-30T03:22:48;9.77;;;6.78;;
7829;SDS011;3960;51.86894000;5.39848000;2022-08-30T03:25:13;12.15;;;7.10;;
7829;SDS011;3960;51.86894000;5.39848000;2022-08-30T03:27:38;8.63;;;7.53;;
7829;SDS011;3960;51.86894000;5.39848000;2022-08-30T03:30:04;13.00;;;7.53;;
7829;SDS011;3960;51.86894000;5.39848000;2022-08-30T03:32:29;9.38;;;7.30;;
7829;SDS011;3960;51.86894000;5.39848000;2022-08-30T03:34:54;13.97;;;7.80;;
7829;SDS011;3960;51.86894000;5.39848000;2022-08-30T03:37:20;10.63;;;6.93;;
7829;SDS011;3960;51.86894000;5.39848000;2022-08-30T03:39:45;10.00;;;7.75;;
7829;SDS011;3960;51.86894000;5.39848000;2022-08-30T03:42:10;11.38;;;6.65;;
7829;SDS011;3960;51.86894000;5.39848000;2022-08-30T03:44:36;9.45;;;7.60;;
7829;SDS011;3960;51.86894000;5.39848000;2022-08-30T03:47:01;10.45;;;7.22;;
7829;SDS011;3960;51.86894000;5.39848000;2022-08-30T03:49:27;8.32;;;7.05;;
7829;SDS011;3960;51.86894000;5.39848000;2022-08-30T03:51:52;9.25;;;6.68;;
7829;SDS011;3960;51.86894000;5.39848000;2022-08-30T03:54:17;9.48;;;8.00;;
7829;SDS011;3960;51.86894000;5.39848000;2022-08-30T03:56:43;12.20;;;7.30;;
7829;SDS011;3960;51.86894000;5.39848000;2022-08-30T03:59:08;10.70;;;7.38;;
7829;SDS011;3960;51.86894000;5.39848000;2022-08-30T04:01:33;8.82;;;7.70;;
7829;SDS011;3960;51.86894000;5.39848000;2022-08-30T04:03:58;12.23;;;7.43;;
7829;SDS011;3960;51.86894000;5.39848000;2022-08-30T04:06:24;9.97;;;7.23;;
7829;SDS011;3960;51.86894000;5.39848000;2022-08-30T04:08:49;10.68;;;8.00;;
7829;SDS011;3960;51.86894000;5.39848000;2022-08-30T04:11:14;11.02;;;7.80;;
7829;SDS011;3960;51.86894000;5.39848000;2022-08-30T04:13:40;10.35;;;7.60;;
7829;SDS011;3960;51.86894000;5.39848000;2022-08-30T04:16:06;11.13;;;8.00;;
7829;SDS011;3960;51.86894000;5.39848000;2022-08-30T04:18:31;11.53;;;7.63;;
7829;SDS011;3960;51.86894000;5.39848000;2022-08-30T04:20:56;8.70;;;7.80;;
7829;SDS011;3960;51.86894000;5.39848000;2022-08-30T04:23:21;16.98;;;8.63;;
7829;SDS011;3960;51.86894000;5.39848000;2022-08-30T04:25:47;8.63;;;7.73;;
7829;SDS011;3960;51.86894000;5.39848000;2022-08-30T04:28:12;11.37;;;8.10;;
7829;SDS011;3960;51.86894000;5.39848000;2022-08-30T04:30:38;11.10;;;8.50;;
7829;SDS011;3960;51.86894000;5.39848000;2022-08-30T04:33:04;10.05;;;8.32;;
7829;SDS011;3960;51.86894000;5.39848000;2022-08-30T04:35:29;11.73;;;8.15;;
7829;SDS011;3960;51.86894000;5.39848000;2022-08-30T04:37:54;10.90;;;8.03;;
7829;SDS011;3960;51.86894000;5.39848000;2022-08-30T04:40:19;10.23;;;7.68;;
7829;SDS011;3960;51.86894000;5.39848000;2022-08-30T04:42:44;10.67;;;8.70;;
7829;SDS011;3960;51.86894000;5.39848000;2022-08-30T04:45:11;12.20;;;8.30;;
7829;SDS011;3960;51.86894000;5.39848000;2022-08-30T04:47:37;9.63;;;8.63;;
7829;SDS011;3960;51.86894000;5.39848000;2022-08-30T04:50:03;12.07;;;8.73;;
7829;SDS011;3960;51.86894000;5.39848000;2022-08-30T04:52:29;10.13;;;8.52;;
7829;SDS011;3960;51.86894000;5.39848000;2022-08-30T04:54:54;16.23;;;8.35;;
7829;SDS011;3960;51.86894000;5.39848000;2022-08-30T04:57:20;11.48;;;8.40;;
7829;SDS011;3960;51.86894000;5.39848000;2022-08-30T04:59:46;9.20;;;8.23;;
7829;SDS011;3960;51.86894000;5.39848000;2022-08-30T05:02:11;11.60;;;8.23;;
7829;SDS011;3960;51.86894000;5.39848000;2022-08-30T05:04:36;11.73;;;8.23;;
7829;SDS011;3960;51.86894000;5.39848000;2022-08-30T05:07:01;14.13;;;8.07;;
7829;SDS011;3960;51.86894000;5.39848000;2022-08-30T05:09:26;10.65;;;7.80;;
7829;SDS011;3960;51.86894000;5.39848000;2022-08-30T05:11:52;12.50;;;8.03;;
7829;SDS011;3960;51.86894000;5.39848000;2022-08-30T05:14:17;10.50;;;8.13;;
7829;SDS011;3960;51.86894000;5.39848000;2022-08-30T05:16:42;13.38;;;8.32;;
7829;SDS011;3960;51.86894000;5.39848000;2022-08-30T05:19:08;13.95;;;7.95;;
7829;SDS011;3960;51.86894000;5.39848000;2022-08-30T05:21:33;12.30;;;7.93;;
7829;SDS011;3960;51.86894000;5.39848000;2022-08-30T05:23:59;9.20;;;7.60;;
7829;SDS011;3960;51.86894000;5.39848000;2022-08-30T05:26:25;12.25;;;7.60;;
7829;SDS011;3960;51.86894000;5.39848000;2022-08-30T05:28:52;10.85;;;7.07;;
7829;SDS011;3960;51.86894000;5.39848000;2022-08-30T05:31:18;9.52;;;7.38;;
7829;SDS011;3960;51.86894000;5.39848000;2022-08-30T05:33:44;7.85;;;7.05;;
7829;SDS011;3960;51.86894000;5.39848000;2022-08-30T05:36:11;11.13;;;6.93;;
7829;SDS011;3960;51.86894000;5.39848000;2022-08-30T05:38:36;9.10;;;7.07;;
7829;SDS011;3960;51.86894000;5.39848000;2022-08-30T05:41:01;7.57;;;6.70;;
7829;SDS011;3960;51.86894000;5.39848000;2022-08-30T05:43:27;8.30;;;6.13;;
7829;SDS011;3960;51.86894000;5.39848000;2022-08-30T05:45:59;8.23;;;6.00;;
7829;SDS011;3960;51.86894000;5.39848000;2022-08-30T05:48:24;6.40;;;5.30;;
7829;SDS011;3960;51.86894000;5.39848000;2022-08-30T05:50:49;7.07;;;4.60;;
7829;SDS011;3960;51.86894000;5.39848000;2022-08-30T05:53:14;8.43;;;5.07;;
7829;SDS011;3960;51.86894000;5.39848000;2022-08-30T05:55:40;6.27;;;4.67;;
7829;SDS011;3960;51.86894000;5.39848000;2022-08-30T05:58:05;8.23;;;4.57;;
7829;SDS011;3960;51.86894000;5.39848000;2022-08-30T06:00:30;7.93;;;4.77;;
7829;SDS011;3960;51.86894000;5.39848000;2022-08-30T06:02:55;4.77;;;4.27;;
7829;SDS011;3960;51.86894000;5.39848000;2022-08-30T06:05:21;5.30;;;4.22;;
7829;SDS011;3960;51.86894000;5.39848000;2022-08-30T06:07:46;6.70;;;4.70;;
7829;SDS011;3960;51.86894000;5.39848000;2022-08-30T06:10:11;9.93;;;4.73;;
7829;SDS011;3960;51.86894000;5.39848000;2022-08-30T06:12:36;7.93;;;4.53;;
7829;SDS011;3960;51.86894000;5.39848000;2022-08-30T06:15:01;7.90;;;4.80;;
7829;SDS011;3960;51.86894000;5.39848000;2022-08-30T06:17:27;5.93;;;4.35;;
7829;SDS011;3960;51.86894000;5.39848000;2022-08-30T06:19:52;4.67;;;4.10;;
7829;SDS011;3960;51.86894000;5.39848000;2022-08-30T06:22:17;5.10;;;4.33;;
7829;SDS011;3960;51.86894000;5.39848000;2022-08-30T06:24:42;5.90;;;4.20;;
7829;SDS011;3960;51.86894000;5.39848000;2022-08-30T06:27:08;7.33;;;4.40;;
7829;SDS011;3960;51.86894000;5.39848000;2022-08-30T06:29:33;6.07;;;4.10;;
7829;SDS011;3960;51.86894000;5.39848000;2022-08-30T06:31:59;7.93;;;4.00;;
7829;SDS011;3960;51.86894000;5.39848000;2022-08-30T06:34:24;8.30;;;4.27;;
7829;SDS011;3960;51.86894000;5.39848000;2022-08-30T06:36:50;7.78;;;4.65;;
7829;SDS011;3960;51.86894000;5.39848000;2022-08-30T06:39:15;8.97;;;3.93;;
7829;SDS011;3960;51.86894000;5.39848000;2022-08-30T06:41:40;7.00;;;4.17;;
7829;SDS011;3960;51.86894000;5.39848000;2022-08-30T06:44:06;6.47;;;4.67;;
7829;SDS011;3960;51.86894000;5.39848000;2022-08-30T06:46:32;6.30;;;4.00;;
7829;SDS011;3960;51.86894000;5.39848000;2022-08-30T06:48:58;5.38;;;4.03;;
7829;SDS011;3960;51.86894000;5.39848000;2022-08-30T06:51:25;7.00;;;3.50;;
7829;SDS011;3960;51.86894000;5.39848000;2022-08-30T06:53:50;10.18;;;3.80;;
7829;SDS011;3960;51.86894000;5.39848000;2022-08-30T06:56:16;12.02;;;3.50;;
7829;SDS011;3960;51.86894000;5.39848000;2022-08-30T06:58:42;5.82;;;3.08;;
7829;SDS011;3960;51.86894000;5.39848000;2022-08-30T07:01:10;4.38;;;3.25;;
7829;SDS011;3960;51.86894000;5.39848000;2022-08-30T07:03:35;6.00;;;2.75;;
7829;SDS011;3960;51.86894000;5.39848000;2022-08-30T07:06:01;3.35;;;2.80;;
7829;SDS011;3960;51.86894000;5.39848000;2022-08-30T07:08:26;7.72;;;3.33;;
7829;SDS011;3960;51.86894000;5.39848000;2022-08-30T07:10:52;4.45;;;2.85;;
7829;SDS011;3960;51.86894000;5.39848000;2022-08-30T07:13:18;3.72;;;2.60;;
7829;SDS011;3960;51.86894000;5.39848000;2022-08-30T07:15:45;6.75;;;2.70;;
7829;SDS011;3960;51.86894000;5.39848000;2022-08-30T07:18:11;5.63;;;2.88;;
7829;SDS011;3960;51.86894000;5.39848000;2022-08-30T07:20:55;6.18;;;2.83;;
7829;SDS011;3960;51.86894000;5.39848000;2022-08-30T07:23:21;3.30;;;2.58;;
7829;SDS011;3960;51.86894000;5.39848000;2022-08-30T07:25:46;4.05;;;2.60;;
7829;SDS011;3960;51.86894000;5.39848000;2022-08-30T07:28:11;5.35;;;2.47;;
7829;SDS011;3960;51.86894000;5.39848000;2022-08-30T07:30:36;4.10;;;2.53;;
7829;SDS011;3960;51.86894000;5.39848000;2022-08-30T07:33:02;3.67;;;2.30;;
7829;SDS011;3960;51.86894000;5.39848000;2022-08-30T07:35:27;6.03;;;2.40;;
7829;SDS011;3960;51.86894000;5.39848000;2022-08-30T07:37:53;2.30;;;1.90;;
7829;SDS011;3960;51.86894000;5.39848000;2022-08-30T07:40:18;4.70;;;2.20;;
7829;SDS011;3960;51.86894000;5.39848000;2022-08-30T07:42:43;3.72;;;1.70;;
7829;SDS011;3960;51.86894000;5.39848000;2022-08-30T07:45:09;3.27;;;1.67;;
7829;SDS011;3960;51.86894000;5.39848000;2022-08-30T07:47:34;3.78;;;1.50;;
7829;SDS011;3960;51.86894000;5.39848000;2022-08-30T07:49:59;6.10;;;2.00;;
7829;SDS011;3960;51.86894000;5.39848000;2022-08-30T07:52:25;3.20;;;1.83;;
7829;SDS011;3960;51.86894000;5.39848000;2022-08-30T07:54:51;2.13;;;1.58;;
7829;SDS011;3960;51.86894000;5.39848000;2022-08-30T07:57:16;1.80;;;1.23;;
7829;SDS011;3960;51.86894000;5.39848000;2022-08-30T07:59:44;2.83;;;1.80;;
7829;SDS011;3960;51.86894000;5.39848000;2022-08-30T08:02:09;10.38;;;1.63;;
7829;SDS011;3960;51.86894000;5.39848000;2022-08-30T08:04:35;5.20;;;1.70;;
7829;SDS011;3960;51.86894000;5.39848000;2022-08-30T08:07:00;2.63;;;1.35;;
7829;SDS011;3960;51.86894000;5.39848000;2022-08-30T08:09:25;3.25;;;1.55;;
7829;SDS011;3960;51.86894000;5.39848000;2022-08-30T08:11:51;4.70;;;1.40;;
7829;SDS011;3960;51.86894000;5.39848000;2022-08-30T08:14:16;3.33;;;1.63;;
7829;SDS011;3960;51.86894000;5.39848000;2022-08-30T08:16:42;5.53;;;1.70;;
7829;SDS011;3960;51.86894000;5.39848000;2022-08-30T08:19:08;2.80;;;1.48;;
7829;SDS011;3960;51.86894000;5.39848000;2022-08-30T08:21:34;1.85;;;1.30;;
7829;SDS011;3960;51.86894000;5.39848000;2022-08-30T08:24:00;2.95;;;1.50;;
7829;SDS011;3960;51.86894000;5.39848000;2022-08-30T08:26:25;4.00;;;1.40;;
7829;SDS011;3960;51.86894000;5.39848000;2022-08-30T08:28:50;5.18;;;1.40;;
7829;SDS011;3960;51.86894000;5.39848000;2022-08-30T08:31:17;3.27;;;1.47;;
7829;SDS011;3960;51.86894000;5.39848000;2022-08-30T08:33:42;3.55;;;1.55;;
7829;SDS011;3960;51.86894000;5.39848000;2022-08-30T08:36:08;3.83;;;1.50;;
7829;SDS011;3960;51.86894000;5.39848000;2022-08-30T08:38:33;6.28;;;1.38;;
7829;SDS011;3960;51.86894000;5.39848000;2022-08-30T08:41:02;1.70;;;1.10;;
7829;SDS011;3960;51.86894000;5.39848000;2022-08-30T08:43:29;5.25;;;1.30;;
7829;SDS011;3960;51.86894000;5.39848000;2022-08-30T08:46:10;3.05;;;1.38;;
7829;SDS011;3960;51.86894000;5.39848000;2022-08-30T08:51:02;3.60;;;1.30;;
7829;SDS011;3960;51.86894000;5.39848000;2022-08-30T08:53:49;3.90;;;1.40;;
7829;SDS011;3960;51.86894000;5.39848000;2022-08-30T08:56:16;3.85;;;1.25;;
7829;SDS011;3960;51.86894000;5.39848000;2022-08-30T09:01:07;4.17;;;1.57;;
7829;SDS011;3960;51.86894000;5.39848000;2022-08-30T09:03:32;2.45;;;1.48;;
7829;SDS011;3960;51.86894000;5.39848000;2022-08-30T09:05:57;3.33;;;1.53;;
7829;SDS011;3960;51.86894000;5.39848000;2022-08-30T09:08:23;10.85;;;1.50;;
7829;SDS011;3960;51.86894000;5.39848000;2022-08-30T09:10:53;5.75;;;1.52;;
7829;SDS011;3960;51.86894000;5.39848000;2022-08-30T09:13:21;9.25;;;1.58;;
7829;SDS011;3960;51.86894000;5.39848000;2022-08-30T09:15:46;6.43;;;1.60;;
7829;SDS011;3960;51.86894000;5.39848000;2022-08-30T09:18:11;5.87;;;1.40;;
7829;SDS011;3960;51.86894000;5.39848000;2022-08-30T09:25:48;3.35;;;1.17;;
7829;SDS011;3960;51.86894000;5.39848000;2022-08-30T09:28:14;3.28;;;1.10;;
7829;SDS011;3960;51.86894000;5.39848000;2022-08-30T09:30:56;1.92;;;1.33;;
7829;SDS011;3960;51.86894000;5.39848000;2022-08-30T09:33:21;2.80;;;1.23;;
7829;SDS011;3960;51.86894000;5.39848000;2022-08-30T09:35:48;6.18;;;1.40;;
7829;SDS011;3960;51.86894000;5.39848000;2022-08-30T09:38:25;2.95;;;1.27;;
7829;SDS011;3960;51.86894000;5.39848000;2022-08-30T09:40:53;2.60;;;1.33;;
7829;SDS011;3960;51.86894000;5.39848000;2022-08-30T09:45:48;3.93;;;1.23;;
7829;SDS011;3960;51.86894000;5.39848000;2022-08-30T09:48:29;2.40;;;1.40;;
7829;SDS011;3960;51.86894000;5.39848000;2022-08-30T09:50:57;3.83;;;1.55;;
7829;SDS011;3960;51.86894000;5.39848000;2022-08-30T09:53:25;4.05;;;1.20;;
7829;SDS011;3960;51.86894000;5.39848000;2022-08-30T09:56:00;4.60;;;1.55;;
7829;SDS011;3960;51.86894000;5.39848000;2022-08-30T10:03:28;5.85;;;1.65;;
7829;SDS011;3960;51.86894000;5.39848000;2022-08-30T10:21:12;3.78;;;1.20;;
7829;SDS011;3960;51.86894000;5.39848000;2022-08-30T10:23:40;3.97;;;1.92;;
7829;SDS011;3960;51.86894000;5.39848000;2022-08-30T10:26:19;2.35;;;1.52;;
7829;SDS011;3960;51.86894000;5.39848000;2022-08-30T10:28:55;8.73;;;1.48;;
7829;SDS011;3960;51.86894000;5.39848000;2022-08-30T10:33:52;6.25;;;1.38;;
7829;SDS011;3960;51.86894000;5.39848000;2022-08-30T10:36:22;2.17;;;1.52;;
7829;SDS011;3960;51.86894000;5.39848000;2022-08-30T10:38:48;2.00;;;1.30;;
7829;SDS011;3960;51.86894000;5.39848000;2022-08-30T10:43:53;5.57;;;1.50;;
7829;SDS011;3960;51.86894000;5.39848000;2022-08-30T10:46:39;3.83;;;1.13;;
7829;SDS011;3960;51.86894000;5.39848000;2022-08-30T10:49:12;3.22;;;1.30;;
7829;SDS011;3960;51.86894000;5.39848000;2022-08-30T10:54:22;2.90;;;1.50;;
7829;SDS011;3960;51.86894000;5.39848000;2022-08-30T10:56:49;5.15;;;1.48;;
7829;SDS011;3960;51.86894000;5.39848000;2022-08-30T10:59:16;3.17;;;1.75;;
7829;SDS011;3960;51.86894000;5.39848000;2022-08-30T11:04:15;6.88;;;1.70;;
7829;SDS011;3960;51.86894000;5.39848000;2022-08-30T11:09:36;4.35;;;1.60;;
7829;SDS011;3960;51.86894000;5.39848000;2022-08-30T11:12:21;5.53;;;1.85;;
7829;SDS011;3960;51.86894000;5.39848000;2022-08-30T11:14:48;9.00;;;1.75;;
7829;SDS011;3960;51.86894000;5.39848000;2022-08-30T11:17:21;7.03;;;1.50;;
7829;SDS011;3960;51.86894000;5.39848000;2022-08-30T11:19:47;3.38;;;1.52;;
7829;SDS011;3960;51.86894000;5.39848000;2022-08-30T11:22:20;2.25;;;1.63;;
7829;SDS011;3960;51.86894000;5.39848000;2022-08-30T11:32:59;2.50;;;1.35;;
7829;SDS011;3960;51.86894000;5.39848000;2022-08-30T11:35:41;4.53;;;1.50;;
7829;SDS011;3960;51.86894000;5.39848000;2022-08-30T11:38:16;2.17;;;1.45;;
7829;SDS011;3960;51.86894000;5.39848000;2022-08-30T11:40:50;2.92;;;1.30;;
7829;SDS011;3960;51.86894000;5.39848000;2022-08-30T11:43:47;3.50;;;1.40;;
7829;SDS011;3960;51.86894000;5.39848000;2022-08-30T11:46:33;2.05;;;1.52;;
7829;SDS011;3960;51.86894000;5.39848000;2022-08-30T11:54:24;1.63;;;1.25;;
7829;SDS011;3960;51.86894000;5.39848000;2022-08-30T11:57:01;5.50;;;1.60;;
7829;SDS011;3960;51.86894000;5.39848000;2022-08-30T12:05:03;2.38;;;1.70;;
7829;SDS011;3960;51.86894000;5.39848000;2022-08-30T12:07:54;2.47;;;1.38;;
7829;SDS011;3960;51.86894000;5.39848000;2022-08-30T12:10:20;2.25;;;1.58;;
7829;SDS011;3960;51.86894000;5.39848000;2022-08-30T12:12:47;5.32;;;1.80;;
7829;SDS011;3960;51.86894000;5.39848000;2022-08-30T12:15:26;2.03;;;1.45;;
7829;SDS011;3960;51.86894000;5.39848000;2022-08-30T12:17:56;4.55;;;1.50;;
7829;SDS011;3960;51.86894000;5.39848000;2022-08-30T12:20:44;3.58;;;1.90;;
7829;SDS011;3960;51.86894000;5.39848000;2022-08-30T12:23:17;4.40;;;1.70;;
7829;SDS011;3960;51.86894000;5.39848000;2022-08-30T12:25:43;5.40;;;1.58;;
7829;SDS011;3960;51.86894000;5.39848000;2022-08-30T12:28:09;6.35;;;1.70;;
7829;SDS011;3960;51.86894000;5.39848000;2022-08-30T12:30:34;3.35;;;1.75;;
7829;SDS011;3960;51.86894000;5.39848000;2022-08-30T12:33:03;2.45;;;1.42;;
7829;SDS011;3960;51.86894000;5.39848000;2022-08-30T12:35:28;4.22;;;1.88;;
7829;SDS011;3960;51.86894000;5.39848000;2022-08-30T12:37:56;3.95;;;1.30;;
7829;SDS011;3960;51.86894000;5.39848000;2022-08-30T12:40:21;6.47;;;2.10;;
7829;SDS011;3960;51.86894000;5.39848000;2022-08-30T12:42:48;3.38;;;1.80;;
7829;SDS011;3960;51.86894000;5.39848000;2022-08-30T12:45:14;3.38;;;1.60;;
7829;SDS011;3960;51.86894000;5.39848000;2022-08-30T12:48:14;3.83;;;1.58;;
7829;SDS011;3960;51.86894000;5.39848000;2022-08-30T12:50:36;5.03;;;1.67;;
7829;SDS011;3960;51.86894000;5.39848000;2022-08-30T12:53:03;5.37;;;1.70;;
7829;SDS011;3960;51.86894000;5.39848000;2022-08-30T12:55:30;6.38;;;1.60;;
7829;SDS011;3960;51.86894000;5.39848000;2022-08-30T13:00:47;4.72;;;1.67;;
7829;SDS011;3960;51.86894000;5.39848000;2022-08-30T13:06:13;2.47;;;1.30;;
7829;SDS011;3960;51.86894000;5.39848000;2022-08-30T13:11:24;7.78;;;1.80;;
7829;SDS011;3960;51.86894000;5.39848000;2022-08-30T13:13:51;4.57;;;1.80;;
7829;SDS011;3960;51.86894000;5.39848000;2022-08-30T13:18:42;7.30;;;1.70;;
7829;SDS011;3960;51.86894000;5.39848000;2022-08-30T13:21:08;8.20;;;1.42;;
7829;SDS011;3960;51.86894000;5.39848000;2022-08-30T13:23:34;3.03;;;1.45;;
7829;SDS011;3960;51.86894000;5.39848000;2022-08-30T13:25:59;4.47;;;2.07;;
7829;SDS011;3960;51.86894000;5.39848000;2022-08-30T13:28:24;2.10;;;1.40;;
7829;SDS011;3960;51.86894000;5.39848000;2022-08-30T13:30:49;3.30;;;1.57;;
7829;SDS011;3960;51.86894000;5.39848000;2022-08-30T13:33:15;4.87;;;1.93;;
7829;SDS011;3960;51.86894000;5.39848000;2022-08-30T13:35:40;5.20;;;1.90;;
7829;SDS011;3960;51.86894000;5.39848000;2022-08-30T13:38:06;3.70;;;2.00;;
7829;SDS011;3960;51.86894000;5.39848000;2022-08-30T13:40:31;2.33;;;1.60;;
7829;SDS011;3960;51.86894000;5.39848000;2022-08-30T13:42:56;5.70;;;2.10;;
7829;SDS011;3960;51.86894000;5.39848000;2022-08-30T13:45:22;3.93;;;1.80;;
7829;SDS011;3960;51.86894000;5.39848000;2022-08-30T13:47:47;6.13;;;1.63;;
7829;SDS011;3960;51.86894000;5.39848000;2022-08-30T13:50:13;3.33;;;1.52;;
7829;SDS011;3960;51.86894000;5.39848000;2022-08-30T13:52:38;4.55;;;1.50;;
7829;SDS011;3960;51.86894000;5.39848000;2022-08-30T13:55:03;4.03;;;1.53;;
7829;SDS011;3960;51.86894000;5.39848000;2022-08-30T13:57:29;2.42;;;1.70;;
7829;SDS011;3960;51.86894000;5.39848000;2022-08-30T13:59:54;5.43;;;1.80;;
7829;SDS011;3960;51.86894000;5.39848000;2022-08-30T14:02:20;4.03;;;1.50;;
7829;SDS011;3960;51.86894000;5.39848000;2022-08-30T14:04:45;1.70;;;1.35;;
7829;SDS011;3960;51.86894000;5.39848000;2022-08-30T14:07:10;3.30;;;1.60;;
7829;SDS011;3960;51.86894000;5.39848000;2022-08-30T14:09:35;3.85;;;1.27;;
7829;SDS011;3960;51.86894000;5.39848000;2022-08-30T14:12:01;2.22;;;1.48;;
7829;SDS011;3960;51.86894000;5.39848000;2022-08-30T14:14:26;2.45;;;1.58;;
7829;SDS011;3960;51.86894000;5.39848000;2022-08-30T14:16:51;5.30;;;1.60;;
7829;SDS011;3960;51.86894000;5.39848000;2022-08-30T14:19:16;4.88;;;1.40;;
7829;SDS011;3960;51.86894000;5.39848000;2022-08-30T14:21:42;3.78;;;1.70;;
7829;SDS011;3960;51.86894000;5.39848000;2022-08-30T14:24:08;4.05;;;1.83;;